Scroll down
FLIGHT INFORMATION
United Parcel Service (UPS)

UPS928

At Arrival Gate

KSEA
 KPHX
DATE: 2020-11-17
GATE:  -
GATE DEPARTURE: 21:03
TAKEOFF: 21:20
DATE: 2020-11-17
GATE: 2
LANDING: 23:41
GATE ARRIVAL: 23:57
FLIGHT DATA
Crew: 
Speed: 
503 kts
Altitude: 
35,011 ft
Stage Length: 
962.2 nm
Block Time: 
2.9 hrs
Flight Time: 
2.4 hrs
Fuel Used: 
61,412 lb
Cleared Route: KSEA SUMMA LTJ IMB NEERO SLOWN BERYL CORKR TENTS KPHX
TRACK DATA
50,000 ft 1,000 kts
AIRCRAFT INFO AND CUMULATIVE STATS
Aircraft Type: 
B748F
Registration: 
SELCAL: 
MSN/LN: 
64263 / 1555
Total Flights: 
2
Total Block Time: 
5 hrs
Total Flight Time: 
4.4 hrs
Total Fuel Time: 
105,635 lb
DATALINK LOG | Newest first | Current as of: 2020-12-02 18:03:41
LABEL SEQUENCE CONTENT Dn/Up
5Z014417 NOV 20 23:58:50z / FLT DECK GOOD / ACF POS GOOD / GRND SERVICES GOOD / MAINT GOOD▼ Dn
QD004323:57 35.9▼ Dn
QC432623:41▼ Dn
GA3730CARGO STAND 2▲ Up
GR3720KPHX 23:39 MAAS YP/UM WCHR/S/C HI-VAL NO DIPL/VIP NO▼ Dn
2U0846KPHX 172251Z 16005KT 10SM SCT230 SCT290 32/M03 A2997 RMK AO2 SLP132 T03221033▲ Up
2S0953KPHX▼ Dn
QB230921:20▼ Dn
QA055321:03 98.1▼ Dn
A34333CLEARED TO KPHX VIA SUMMA2 SUMMA LTJ IMB NEERO SLOWN BERYL CORKR TENTS BRUSR1. SQUAWK 0037.▲ Up
2U3806KSEA 171953Z 19025G34KT 10SM FEW035 BKN070 BKN250 16/08 A2933 RMK AO2 PK WND 16040/1930 SLP937 VCSH T01610078▲ Up
2S4031KSEA▼ Dn
A74030CLEARANCE AVAIL WITHIN 0:25 OF EDT▲ Up
B34030KSEA KPHX UPS928 N617UP ▼ Dn
Q03828[LINK ACK]▲ Up
Q03828[LINK TEST]▼ Dn


AIRCRAFT HISTORY
FLIGHT DATE FLIGHT NO. ORIGIN DESTINATION CLEARED ROUTE BLOCK TIME FLIGHT TIME FUEL USED PILOT
2020-11-17UPS928KSEA KPHX KSEA SUMMA LTJ IMB NEERO SLOWN BERYL CORKR TENTS KPHX2.9 hrs2.4 hrs61,412 lbJames W.
2020-10-31UPS5X0519KONT KSEA KONT DINNK POM SNSHN NLAND TUNAY EHF SHIMR LKV KSEA2.4 hrs2 hrs44,223 lbSteven Perry